Time;durP1;ratioP1;P1;durP2;ratioP2;P2;SDS_P1;SDS_P2;PMS_P1;PMS_P2;Temp;Humidity;BMP_temperature;BMP_pressure;BME280_temperature;BME280_humidity;BME280_pressure;Samples;Min_cycle;Max_cycle;Signal;HPM_P1;HPM_P2
2023/03/25 00:00:14;;;;;;;;;;;;;;;;;;2030607;29;20213;-88
2023/03/25 00:01:16;;;;;;;30.50;15.75;;;;;;;;;;2030563;29;19910;-90
2023/03/25 00:02:17;;;;;;;33.60;15.93;;;;;;;;;;2030611;29;20362;-90
2023/03/25 00:03:19;;;;;;;31.00;16.27;;;;;;;;;;2030296;29;20034;-90
2023/03/25 00:04:19;;;;;;;29.98;16.42;;;;;;;;;;2029967;29;20024;-91
2023/03/25 00:05:20;;;;;;;;;;;;;;;;;;2030591;29;20511;-90
2023/03/25 00:06:21;;;;;;;28.63;15.00;;;;;;;;;;2029988;29;19926;-90
2023/03/25 00:07:21;;;;;;;30.20;15.23;;;;;;;;;;2038259;29;20601;-90
2023/03/25 00:08:23;;;;;;;;;;;;;;;;;;2039250;29;20498;-89
2023/03/25 00:09:24;;;;;;;26.60;14.15;;;;;;;;;;2030799;29;19938;-90
2023/03/25 00:10:24;;;;;;;;;;;;;;;;;;2038584;29;20455;-90
2023/03/25 00:11:25;;;;;;;29.15;14.73;;;;;;;;;;2045937;29;19911;-90
2023/03/25 00:12:26;;;;;;;;;;;;;;;;;;2046390;29;20027;-89
2023/03/25 00:13:27;;;;;;;25.30;14.07;;;;;;;;;;2037800;29;20409;-90
2023/03/25 00:14:28;;;;;;;27.17;14.85;;;;;;;;;;2033914;29;20024;-87
2023/03/25 00:15:28;;;;;;;24.70;14.70;;;;;;;;;;2033438;29;20042;-91
2023/03/25 00:16:29;;;;;;;;;;;;;;;;;;2038493;29;20024;-88
2023/03/25 00:17:29;;;;;;;20.53;12.20;;;;;;;;;;2046616;29;19972;-90
2023/03/25 00:18:33;;;;;;;;;;;;;;;;;;2038423;29;20064;-88
2023/03/25 00:19:34;;;;;;;23.05;13.57;;;;;;;;;;2038732;29;19910;-90
2023/03/25 00:20:34;;;;;;;;;;;;;;;;;;2047255;29;20471;-90
2023/03/25 00:21:35;;;;;;;20.63;12.40;;;;;;;;;;2046585;29;19925;-90
2023/03/25 00:22:39;;;;;;;17.38;10.57;;;;;;;;;;2042102;29;20262;-87
2023/03/25 00:23:41;;;;;;;17.65;10.65;;;;;;;;;;2039345;29;20096;-88
2023/03/25 00:24:41;;;;;;;16.77;10.70;;;;;;;;;;2038251;29;20031;-89
2023/03/25 00:25:43;;;;;;;;;;;;;;;;;;2039329;29;20031;-88
2023/03/25 00:26:45;;;;;;;14.40;9.57;;;;;;;;;;2039421;29;19914;-88
2023/03/25 00:27:47;;;;;;;16.42;10.30;;;;;;;;;;2038969;29;20040;-88
2023/03/25 00:28:47;;;;;;;17.67;10.43;;;;;;;;;;2031696;29;20582;-88
2023/03/25 00:29:48;;;;;;;;;;;;;;;;;;2039819;29;20030;-89
2023/03/25 00:30:48;;;;;;;16.23;9.68;;;;;;;;;;2039813;29;19915;-89
2023/03/25 00:31:48;;;;;;;;;;;;;;;;;;1696431;29;10087970;-91
2023/03/25 00:32:51;;;;;;;18.08;10.43;;;;;;;;;;2039202;29;20426;-89
2023/03/25 00:33:51;;;;;;;19.00;10.85;;;;;;;;;;2031744;29;20034;-89
2023/03/25 00:34:52;;;;;;;;;;;;;;;;;;2039879;29;20162;-88
2023/03/25 00:35:57;;;;;;;20.27;10.48;;;;;;;;;;2048093;29;19914;-88
2023/03/25 00:36:58;;;;;;;16.98;10.23;;;;;;;;;;2039400;29;20585;-87
2023/03/25 00:38:01;;;;;;;;;;;;;;;;;;2032224;29;20099;-89
2023/03/25 00:39:03;;;;;;;17.75;11.18;;;;;;;;;;2031736;29;20362;-88
2023/03/25 00:40:05;;;;;;;17.63;10.10;;;;;;;;;;2039469;29;20461;-88
2023/03/25 00:41:24;;;;;;;16.98;10.65;;;;;;;;;;2039202;29;20028;-87
2023/03/25 00:42:27;;;;;;;16.58;10.00;;;;;;;;;;2033382;29;20154;-89
2023/03/25 00:43:32;;;;;;;19.08;10.55;;;;;;;;;;1838228;29;10435583;-88
2023/03/25 00:44:33;;;;;;;18.58;10.05;;;;;;;;;;2039682;29;20292;-88
2023/03/25 00:45:33;;;;;;;14.13;10.35;;;;;;;;;;2039237;29;20458;-87
2023/03/25 00:46:34;;;;;;;17.92;10.82;;;;;;;;;;2039065;29;20027;-88
2023/03/25 00:47:34;;;;;;;;;;;;;;;;;;2039678;29;20446;-88
2023/03/25 00:48:35;;;;;;;14.27;9.33;;;;;;;;;;2039469;29;20136;-88
2023/03/25 00:49:36;;;;;;;18.35;10.75;;;;;;;;;;2047492;29;20039;-88
2023/03/25 00:50:36;;;;;;;;;;;;;;;;;;2048286;29;20083;-88
2023/03/25 00:51:36;;;;;;;15.30;10.33;;;;;;;;;;2047813;29;20251;-88
2023/03/25 00:52:37;;;;;;;;;;;;;;;;;;2048092;29;20043;-88
2023/03/25 00:53:38;;;;;;;17.20;10.60;;;;;;;;;;2039142;29;19978;-88
2023/03/25 00:54:38;;;;;;;;;;;;;;;;;;2039585;29;20059;-88
2023/03/25 00:55:40;;;;;;;15.63;9.53;;;;;;;;;;2047120;29;20081;-88
2023/03/25 00:56:40;;;;;;;15.90;10.32;;;;;;;;;;2031080;29;20046;-89
2023/03/25 00:57:41;;;;;;;;;;;;;;;;;;2031506;29;20551;-88
2023/03/25 00:58:41;;;;;;;17.63;11.27;;;;;;;;;;2038957;29;19921;-90
2023/03/25 00:59:41;;;;;;;;;;;;;;;;;;2039453;29;20521;-88
2023/03/25 01:00:42;;;;;;;16.52;10.55;;;;;;;;;;2039134;29;19962;-88
2023/03/25 01:01:44;;;;;;;;;;;;;;;;;;2048041;29;20483;-88
2023/03/25 01:02:48;;;;;;;18.48;11.73;;;;;;;;;;2039082;29;20013;-88
2023/03/25 01:03:56;;;;;;;18.92;11.40;;;;;;;;;;2039459;29;20585;-88
2023/03/25 01:04:58;;;;;;;15.00;10.43;;;;;;;;;;2038987;29;20031;-88
2023/03/25 01:05:59;;;;;;;16.00;11.07;;;;;;;;;;2039198;29;20257;-88
2023/03/25 01:07:02;;;;;;;;;;;;;;;;;;2048165;29;20487;-89
2023/03/25 01:08:02;;;;;;;17.77;10.45;;;;;;;;;;2039495;29;19925;-88
2023/03/25 01:09:04;;;;;;;;;;;;;;;;;;2031924;29;20065;-88
2023/03/25 01:10:06;;;;;;;17.20;10.20;;;;;;;;;;2039172;29;20282;-88
2023/03/25 01:11:17;;;;;;;15.57;10.73;;;;;;;;;;2039345;29;20047;-89
2023/03/25 01:12:18;;;;;;;;;;;;;;;;;;2033160;29;20038;-88
2023/03/25 01:13:19;;;;;;;15.07;10.32;;;;;;;;;;2039248;29;19929;-88
2023/03/25 01:14:23;;;;;;;18.10;10.75;;;;;;;;;;2047567;29;20514;-88
2023/03/25 01:15:24;;;;;;;19.80;10.10;;;;;;;;;;2038750;29;20058;-89
2023/03/25 01:16:26;;;;;;;16.75;10.10;;;;;;;;;;2034150;29;20038;-88
2023/03/25 01:17:26;;;;;;;15.68;10.07;;;;;;;;;;2045774;29;20067;-87
2023/03/25 01:18:26;;;;;;;;;;;;;;;;;;2043845;29;20481;-88
2023/03/25 01:19:27;;;;;;;17.63;10.50;;;;;;;;;;2039411;29;19914;-89
2023/03/25 01:20:27;;;;;;;;;;;;;;;;;;2039709;29;20499;-89
2023/03/25 01:21:27;;;;;;;18.10;11.13;;;;;;;;;;2031514;29;19910;-88
2023/03/25 01:22:28;;;;;;;18.13;11.27;;;;;;;;;;2031064;29;20024;-88
2023/03/25 01:23:28;;;;;;;19.00;11.77;;;;;;;;;;2039175;29;20024;-89
2023/03/25 01:24:30;;;;;;;18.13;10.93;;;;;;;;;;2039124;29;20039;-89
2023/03/25 01:25:30;;;;;;;18.70;11.77;;;;;;;;;;2039340;29;20051;-88
2023/03/25 01:26:31;;;;;;;;;;;;;;;;;;2048127;29;20538;-88
2023/03/25 01:27:31;;;;;;;20.13;11.40;;;;;;;;;;2047863;29;19917;-88
2023/03/25 01:28:32;;;;;;;;;;;;;;;;;;2048237;29;20308;-88
2023/03/25 01:29:32;;;;;;;19.40;12.77;;;;;;;;;;2047765;29;19929;-88
2023/03/25 01:30:32;;;;;;;;;;;;;;;;;;2048179;29;20058;-89
2023/03/25 01:31:33;;;;;;;22.63;12.60;;;;;;;;;;2047783;29;19910;-88
2023/03/25 01:32:33;;;;;;;21.80;11.88;;;;;;;;;;2038872;29;20737;-89
2023/03/25 01:33:35;;;;;;;21.00;12.93;;;;;;;;;;2031110;29;20036;-88
2023/03/25 01:34:37;;;;;;;19.15;12.65;;;;;;;;;;2038962;29;20106;-89
2023/03/25 01:35:37;;;;;;;19.52;12.88;;;;;;;;;;2047355;29;20427;-88
2023/03/25 01:36:45;;;;;;;;;;;;;;;;;;2039303;29;20028;-89
2023/03/25 01:37:45;;;;;;;22.23;13.45;;;;;;;;;;2040666;29;19911;-89
2023/03/25 01:38:46;;;;;;;;;;;;;;;;;;2039498;29;20030;-89
2023/03/25 01:39:47;;;;;;;21.27;13.68;;;;;;;;;;2039002;29;19929;-89
2023/03/25 01:40:50;;;;;;;20.85;12.65;;;;;;;;;;2047636;29;20091;-89
2023/03/25 01:41:50;;;;;;;25.35;13.57;;;;;;;;;;2038767;29;20110;-89
2023/03/25 01:42:50;;;;;;;;;;;;;;;;;;2031619;29;20188;-89
2023/03/25 01:44:03;;;;;;;21.10;12.27;;;;;;;;;;2038800;29;19919;-88
2023/03/25 01:45:23;;;;;;;19.77;11.95;;;;;;;;;;2047542;29;20031;-89
2023/03/25 01:46:23;;;;;;;21.63;12.82;;;;;;;;;;2038704;29;20127;-88
2023/03/25 01:47:25;;;;;;;;;;;;;;;;;;2039411;29;20038;-88
2023/03/25 01:48:37;;;;;;;21.40;12.18;;;;;;;;;;2038732;29;19914;-88
2023/03/25 01:49:43;;;;;;;21.70;12.48;;;;;;;;;;2043467;29;20425;-88
2023/03/25 01:50:49;;;;;;;19.73;11.88;;;;;;;;;;2049195;29;20095;-89
2023/03/25 01:51:57;;;;;;;20.25;12.20;;;;;;;;;;2049433;29;20031;-88
2023/03/25 01:53:00;;;;;;;19.00;12.57;;;;;;;;;;2046674;29;20104;-88
2023/03/25 01:54:02;;;;;;;17.52;12.05;;;;;;;;;;2047588;29;20119;-88
2023/03/25 01:55:02;;;;;;;19.42;12.48;;;;;;;;;;2039627;29;20129;-89
2023/03/25 01:56:04;;;;;;;;;;;;;;;;;;2031269;29;20427;-88
2023/03/25 01:57:05;;;;;;;;;;;;;;;;;;2031360;29;19918;-88
2023/03/25 01:58:10;;;;;;;20.13;12.38;;;;;;;;;;2030712;29;19937;-88
2023/03/25 01:59:13;;;;;;;18.73;11.48;;;;;;;;;;1697549;29;10046097;-87
2023/03/25 02:00:15;;;;;;;18.55;11.95;;;;;;;;;;2038510;29;20036;-87
2023/03/25 02:01:25;;;;;;;19.36;12.27;;;;;;;;;;1945344;29;10002088;-88
2023/03/25 02:02:33;;;;;;;19.33;11.73;;;;;;;;;;2032043;29;20735;-87
2023/03/25 02:03:35;;;;;;;16.35;11.50;;;;;;;;;;2031815;29;20127;-88
2023/03/25 02:04:44;;;;;;;18.13;11.50;;;;;;;;;;2038854;29;20423;-88
2023/03/25 02:05:48;;;;;;;19.55;13.15;;;;;;;;;;2047444;29;20053;-87
2023/03/25 02:06:52;;;;;;;18.30;12.40;;;;;;;;;;1697079;29;10240915;-88
2023/03/25 02:07:56;;;;;;;16.58;11.68;;;;;;;;;;2047190;29;20132;-89
2023/03/25 02:09:02;;;;;;;20.27;12.57;;;;;;;;;;2047236;29;20141;-88
2023/03/25 02:10:07;;;;;;;21.45;13.23;;;;;;;;;;2056289;28;20126;-88
2023/03/25 02:11:09;;;;;;;21.85;13.30;;;;;;;;;;2057628;28;20031;-88
2023/03/25 02:12:09;;;;;;;21.92;13.15;;;;;;;;;;2057474;28;20038;-88
2023/03/25 02:13:10;;;;;;;;;;;;;;;;;;2047012;29;20057;-88
2023/03/25 02:14:17;;;;;;;19.95;13.07;;;;;;;;;;2036812;29;20039;-89
2023/03/25 02:15:19;;;;;;;21.33;13.98;;;;;;;;;;2041414;29;20043;-89
2023/03/25 02:16:20;;;;;;;21.42;13.70;;;;;;;;;;2048083;29;20026;-89
2023/03/25 02:17:20;;;;;;;;;;;;;;;;;;2039440;29;20517;-88
2023/03/25 02:18:36;;;;;;;19.98;12.75;;;;;;;;;;2030579;29;19911;-88
2023/03/25 02:19:55;;;;;;;22.45;12.93;;;;;;;;;;2032675;29;20519;-89
2023/03/25 02:21:16;;;;;;;18.58;13.15;;;;;;;;;;2041106;29;20040;-87
2023/03/25 02:22:36;;;;;;;;;;;;;;;;;;2039061;29;20051;-87
2023/03/25 02:24:01;;;;;;;19.98;13.07;;;;;;;;;;2033011;29;20383;-89
2023/03/25 02:25:08;;;;;;;20.85;12.80;;;;;;;;;;2033919;29;20031;-88
2023/03/25 02:26:31;;;;;;;19.08;12.45;;;;;;;;;;2038555;29;20479;-89
2023/03/25 02:27:50;;;;;;;21.85;12.90;;;;;;;;;;2033140;29;20503;-87
2023/03/25 02:29:04;;;;;;;22.13;13.10;;;;;;;;;;2032996;29;20135;-87
2023/03/25 02:30:25;;;;;;;25.58;13.93;;;;;;;;;;2032199;29;20028;-90
2023/03/25 02:31:28;;;;;;;20.98;13.57;;;;;;;;;;2041225;29;20529;-88
2023/03/25 02:32:50;;;;;;;24.25;14.05;;;;;;;;;;2038211;29;20122;-89
2023/03/25 02:34:12;;;;;;;23.00;13.48;;;;;;;;;;2033053;29;20500;-89
2023/03/25 02:35:22;;;;;;;25.48;13.48;;;;;;;;;;2033206;29;20225;-89
2023/03/25 02:36:47;;;;;;;21.55;13.60;;;;;;;;;;2039379;29;20019;-89
2023/03/25 02:38:16;;;;;;;23.92;13.60;;;;;;;;;;2013930;29;20041;-88
2023/03/25 02:39:41;;;;;;;20.20;13.50;;;;;;;;;;2042180;29;20022;-88
2023/03/25 02:40:55;;;;;;;23.70;13.48;;;;;;;;;;2038149;29;20542;-89
2023/03/25 02:42:23;;;;;;;20.50;12.85;;;;;;;;;;2031871;29;20074;-89
2023/03/25 02:43:35;;;;;;;22.50;13.52;;;;;;;;;;2034334;29;20031;-88
2023/03/25 02:45:01;;;;;;;21.02;12.38;;;;;;;;;;2031841;29;20518;-89
2023/03/25 02:46:07;;;;;;;22.65;12.77;;;;;;;;;;2029792;29;20034;-89
2023/03/25 02:47:14;;;;;;;20.70;12.20;;;;;;;;;;2030944;29;20022;-86
2023/03/25 02:48:20;;;;;;;19.92;12.70;;;;;;;;;;2030593;29;20020;-88
2023/03/25 02:49:26;;;;;;;21.05;12.77;;;;;;;;;;2039115;29;20059;-89
2023/03/25 02:50:35;;;;;;;21.60;12.93;;;;;;;;;;2046597;29;20057;-89
2023/03/25 02:51:57;;;;;;;27.30;14.13;;;;;;;;;;2045393;29;20039;-88
2023/03/25 02:53:00;;;;;;;23.45;12.90;;;;;;;;;;2038156;29;20028;-89
2023/03/25 02:54:09;;;;;;;22.60;13.73;;;;;;;;;;2030583;29;20104;-89
2023/03/25 02:55:13;;;;;;;21.00;13.10;;;;;;;;;;2039598;29;20091;-89
2023/03/25 02:56:16;;;;;;;20.15;12.70;;;;;;;;;;2046056;29;20134;-90
2023/03/25 02:57:20;;;;;;;19.40;12.32;;;;;;;;;;2038142;29;20020;-87
2023/03/25 02:58:21;;;;;;;17.83;12.40;;;;;;;;;;2030743;29;20024;-88
2023/03/25 02:59:23;;;;;;;20.23;12.85;;;;;;;;;;2030427;29;20031;-88
2023/03/25 03:00:27;;;;;;;16.77;11.65;;;;;;;;;;2030453;29;20691;-87
2023/03/25 03:01:28;;;;;;;18.35;11.88;;;;;;;;;;2030657;29;20031;-88
2023/03/25 03:02:31;;;;;;;;;;;;;;;;;;2038592;29;20062;-88
2023/03/25 03:03:31;;;;;;;20.05;12.63;;;;;;;;;;2046568;29;20312;-89
2023/03/25 03:04:31;;;;;;;;;;;;;;;;;;2039318;29;20257;-89
2023/03/25 03:05:44;;;;;;;21.58;13.75;;;;;;;;;;2042892;29;19918;-87
2023/03/25 03:06:44;;;;;;;17.08;12.40;;;;;;;;;;2044589;29;20020;-88
2023/03/25 03:07:46;;;;;;;;;;;;;;;;;;2039023;29;20027;-88
2023/03/25 03:08:47;;;;;;;23.25;14.10;;;;;;;;;;2038592;29;19911;-88
2023/03/25 03:10:01;;;;;;;;;;;;;;;;;;2038898;29;20054;-89
2023/03/25 03:11:30;;;;;;;18.52;12.57;;;;;;;;;;2038289;29;19950;-89
2023/03/25 03:12:44;;;;;;;19.60;12.25;;;;;;;;;;2021961;29;20036;-89
2023/03/25 03:14:09;;;;;;;18.52;11.52;;;;;;;;;;2038361;29;20041;-89
2023/03/25 03:15:38;;;;;;;16.90;11.25;;;;;;;;;;2033734;29;20131;-88
2023/03/25 03:17:11;;;;;;;16.10;11.23;;;;;;;;;;2042382;29;20029;-87
2023/03/25 03:18:41;;;;;;;15.52;10.98;;;;;;;;;;2014391;29;20021;-89
2023/03/25 03:19:50;;;;;;;16.67;11.18;;;;;;;;;;2037692;29;20083;-88
2023/03/25 03:21:09;;;;;;;16.77;11.07;;;;;;;;;;2038705;29;20031;-91
2023/03/25 03:22:19;;;;;;;18.27;11.48;;;;;;;;;;2040891;29;20604;-89
2023/03/25 03:23:35;;;;;;;16.15;10.60;;;;;;;;;;2038550;29;20472;-91
2023/03/25 03:24:41;;;;;;;16.38;10.32;;;;;;;;;;2032331;29;20498;-90
2023/03/25 03:25:55;;;;;;;16.88;11.00;;;;;;;;;;2030991;29;20158;-90
2023/03/25 03:27:22;;;;;;;15.32;10.48;;;;;;;;;;2038098;29;20031;-88
2023/03/25 03:28:29;;;;;;;15.80;10.35;;;;;;;;;;2041885;29;20098;-88
2023/03/25 03:29:35;;;;;;;15.80;9.90;;;;;;;;;;2037987;29;20419;-89
2023/03/25 03:30:45;;;;;;;15.50;10.13;;;;;;;;;;2030955;29;20038;-89
2023/03/25 03:31:56;;;;;;;15.30;10.45;;;;;;;;;;2039340;29;20135;-88
2023/03/25 03:33:24;;;;;;;16.20;9.48;;;;;;;;;;2046722;29;20038;-88
2023/03/25 03:34:43;;;;;;;15.18;10.10;;;;;;;;;;2039424;29;20028;-89
2023/03/25 03:35:56;;;;;;;15.75;10.48;;;;;;;;;;2040857;29;20055;-89
2023/03/25 03:36:59;;;;;;;17.25;11.45;;;;;;;;;;2038239;29;20503;-89
2023/03/25 03:38:03;;;;;;;15.20;10.73;;;;;;;;;;2038283;29;20055;-88
2023/03/25 03:39:15;;;;;;;15.93;10.63;;;;;;;;;;2046065;29;20027;-89
2023/03/25 03:40:19;;;;;;;16.05;10.13;;;;;;;;;;2046844;29;20469;-87
2023/03/25 03:41:23;;;;;;;16.75;10.63;;;;;;;;;;2046822;29;20055;-89
2023/03/25 03:42:46;;;;;;;15.13;10.68;;;;;;;;;;2045885;29;20167;-90
2023/03/25 03:43:56;;;;;;;15.45;10.35;;;;;;;;;;2046230;29;20075;-89
2023/03/25 03:45:01;;;;;;;16.52;11.07;;;;;;;;;;2038046;29;20348;-88
2023/03/25 03:46:07;;;;;;;19.92;11.85;;;;;;;;;;2030819;29;20031;-89
2023/03/25 03:47:13;;;;;;;18.15;11.05;;;;;;;;;;2028316;29;20490;-89
2023/03/25 03:48:21;;;;;;;19.90;11.18;;;;;;;;;;2038514;29;20122;-88
2023/03/25 03:49:26;;;;;;;18.58;11.00;;;;;;;;;;2038968;29;20015;-88
2023/03/25 03:50:31;;;;;;;20.00;11.45;;;;;;;;;;2046874;29;20106;-88
2023/03/25 03:51:37;;;;;;;19.27;12.52;;;;;;;;;;2037978;29;20028;-88
2023/03/25 03:53:06;;;;;;;19.75;11.50;;;;;;;;;;2038922;29;20058;-88
2023/03/25 03:54:15;;;;;;;21.15;12.77;;;;;;;;;;2043322;29;20126;-89
2023/03/25 03:55:22;;;;;;;16.38;11.38;;;;;;;;;;2038769;29;20533;-89
2023/03/25 03:56:45;;;;;;;21.60;12.25;;;;;;;;;;2039434;29;20083;-89
2023/03/25 03:58:00;;;;;;;18.33;11.82;;;;;;;;;;2047443;29;20034;-89
2023/03/25 03:59:02;;;;;;;18.58;11.93;;;;;;;;;;2047896;29;20035;-87
2023/03/25 04:00:16;;;;;;;15.05;11.15;;;;;;;;;;2053118;28;20034;-89
2023/03/25 04:01:34;;;;;;;19.00;11.88;;;;;;;;;;2044103;29;20570;-86
2023/03/25 04:02:41;;;;;;;19.40;12.50;;;;;;;;;;2042129;29;20031;-88
2023/03/25 04:03:50;;;;;;;16.67;11.32;;;;;;;;;;2048308;29;20494;-88
2023/03/25 04:04:53;;;;;;;18.20;11.40;;;;;;;;;;2042985;29;20031;-87
2023/03/25 04:06:06;;;;;;;16.05;10.32;;;;;;;;;;2033057;29;20047;-88
2023/03/25 04:07:14;;;;;;;17.37;10.97;;;;;;;;;;1692792;29;10242831;-89
2023/03/25 04:08:36;;;;;;;15.13;10.85;;;;;;;;;;2039546;29;20031;-89
2023/03/25 04:10:07;;;;;;;14.23;11.02;;;;;;;;;;2034577;29;20110;-90
2023/03/25 04:11:13;;;;;;;17.83;11.13;;;;;;;;;;2043950;29;20106;-88
2023/03/25 04:12:34;;;;;;;14.50;11.00;;;;;;;;;;2048685;29;20041;-88
2023/03/25 04:13:39;;;;;;;15.63;10.93;;;;;;;;;;2048335;29;20471;-89
2023/03/25 04:14:40;;;;;;;15.43;10.57;;;;;;;;;;2039831;29;20539;-88
2023/03/25 04:15:42;;;;;;;14.40;9.75;;;;;;;;;;2032126;29;20032;-88
2023/03/25 04:16:44;;;;;;;16.08;9.80;;;;;;;;;;2031843;29;20054;-87
2023/03/25 04:17:46;;;;;;;17.20;10.48;;;;;;;;;;1698543;29;10001514;-90
2023/03/25 04:18:47;;;;;;;17.05;10.88;;;;;;;;;;2039515;29;20083;-90
2023/03/25 04:19:47;;;;;;;;;;;;;;;;;;2032213;29;20107;-90
2023/03/25 04:20:48;;;;;;;17.07;10.97;;;;;;;;;;2039733;29;20085;-90
2023/03/25 04:21:48;;;;;;;17.65;10.55;;;;;;;;;;2039608;29;20027;-90
2023/03/25 04:22:50;;;;;;;17.60;11.00;;;;;;;;;;2031610;29;20028;-90
2023/03/25 04:23:52;;;;;;;16.83;10.77;;;;;;;;;;2039773;29;20028;-91
2023/03/25 04:24:54;;;;;;;15.07;10.25;;;;;;;;;;2049357;29;20046;-90
2023/03/25 04:25:55;;;;;;;17.17;10.80;;;;;;;;;;2039694;29;20086;-88
2023/03/25 04:26:56;;;;;;;;;;;;;;;;;;2039881;29;20039;-88
2023/03/25 04:27:58;;;;;;;17.02;10.63;;;;;;;;;;2048310;29;19910;-90
2023/03/25 04:29:03;;;;;;;16.90;10.55;;;;;;;;;;2048391;29;20110;-88
2023/03/25 04:30:06;;;;;;;14.75;9.70;;;;;;;;;;2048461;29;20031;-88
2023/03/25 04:31:14;;;;;;;17.23;9.70;;;;;;;;;;2048841;29;20030;-88
2023/03/25 04:32:16;;;;;;;14.52;10.60;;;;;;;;;;2051843;28;20046;-88
2023/03/25 04:33:19;;;;;;;17.17;11.13;;;;;;;;;;2043110;29;20112;-89
2023/03/25 04:34:20;;;;;;;20.95;10.77;;;;;;;;;;2050610;28;20032;-89
2023/03/25 04:35:21;;;;;;;;;;;;;;;;;;2050423;28;20032;-88
2023/03/25 04:36:21;;;;;;;16.43;10.33;;;;;;;;;;2039431;29;19927;-90
2023/03/25 04:37:22;;;;;;;;;;;;;;;;;;2041683;29;20484;-89
2023/03/25 04:38:23;;;;;;;18.60;9.85;;;;;;;;;;2047623;29;20354;-89
2023/03/25 04:39:24;;;;;;;;;;;;;;;;;;2048364;29;20035;-90
2023/03/25 04:40:24;;;;;;;14.73;9.93;;;;;;;;;;2039391;29;19911;-90
2023/03/25 04:41:25;;;;;;;;;;;;;;;;;;2039492;29;20096;-89
2023/03/25 04:42:31;;;;;;;19.97;11.43;;;;;;;;;;2039011;29;19954;-89
2023/03/25 04:43:32;;;;;;;18.50;12.20;;;;;;;;;;2032013;29;20055;-89
2023/03/25 04:44:37;;;;;;;;;;;;;;;;;;2039805;29;20114;-89
2023/03/25 04:45:38;;;;;;;17.88;10.82;;;;;;;;;;2049234;28;19994;-89
2023/03/25 04:46:38;;;;;;;;;;;;;;;;;;2039528;29;20115;-89
2023/03/25 04:47:45;;;;;;;15.75;9.95;;;;;;;;;;1676900;29;10458446;-90
2023/03/25 04:48:46;;;;;;;16.08;11.10;;;;;;;;;;2032420;29;20043;-89
2023/03/25 04:49:46;;;;;;;;;;;;;;;;;;2031600;29;20032;-90
2023/03/25 04:50:47;;;;;;;20.77;11.87;;;;;;;;;;2030983;29;19911;-90
2023/03/25 04:51:50;;;;;;;18.15;11.75;;;;;;;;;;2039097;29;20587;-89
2023/03/25 04:52:51;;;;;;;18.73;11.50;;;;;;;;;;2054831;29;20030;-89
2023/03/25 04:53:52;;;;;;;16.85;10.95;;;;;;;;;;2049030;28;20031;-90
2023/03/25 04:54:52;;;;;;;;;;;;;;;;;;2042475;29;20032;-87
2023/03/25 04:55:54;;;;;;;19.27;11.63;;;;;;;;;;2043759;29;20177;-89
2023/03/25 04:56:55;;;;;;;16.85;9.90;;;;;;;;;;2051407;29;20542;-88
2023/03/25 04:57:55;;;;;;;;;;;;;;;;;;2040862;29;20036;-89
2023/03/25 04:58:55;;;;;;;18.83;11.17;;;;;;;;;;2039794;29;19970;-89
2023/03/25 04:59:56;;;;;;;16.25;9.82;;;;;;;;;;2039680;29;20130;-89
2023/03/25 05:01:04;;;;;;;22.45;11.43;;;;;;;;;;2034776;29;20113;-96
2023/03/25 05:02:17;;;;;;;15.18;10.48;;;;;;;;;;2049353;29;20083;-96
2023/03/25 05:04:05;;;;;;;16.05;10.07;;;;;;;;;;2050753;28;20027;-96
2023/03/25 05:07:19;;;;;;;16.45;10.43;;;;;;;;;;2057971;29;20043;-95
2023/03/25 05:08:20;;;;;;;20.32;11.90;;;;;;;;;;1697734;29;10247674;-89
2023/03/25 05:09:23;;;;;;;18.98;10.93;;;;;;;;;;2039202;29;20034;-89
2023/03/25 05:10:25;;;;;;;21.20;12.35;;;;;;;;;;2039402;29;20490;-89
2023/03/25 05:11:25;;;;;;;21.60;12.07;;;;;;;;;;2047410;28;20462;-89
2023/03/25 05:12:25;;;;;;;23.98;13.95;;;;;;;;;;2047946;29;20046;-89
2023/03/25 05:13:26;;;;;;;30.83;15.70;;;;;;;;;;2047829;29;20470;-89
2023/03/25 05:14:26;;;;;;;37.25;18.10;;;;;;;;;;2039082;29;20043;-90
2023/03/25 05:15:29;;;;;;;44.00;19.80;;;;;;;;;;2039237;29;20047;-90
2023/03/25 05:16:30;;;;;;;41.13;20.17;;;;;;;;;;2047530;29;20386;-90
2023/03/25 05:17:30;;;;;;;40.38;19.83;;;;;;;;;;2039248;29;20423;-89
2023/03/25 05:18:31;;;;;;;34.25;17.08;;;;;;;;;;2031631;29;20085;-89
2023/03/25 05:19:33;;;;;;;26.40;13.85;;;;;;;;;;2031213;29;20434;-89
2023/03/25 05:20:38;;;;;;;23.95;14.15;;;;;;;;;;2031506;29;20039;-89
2023/03/25 05:21:41;;;;;;;24.33;13.95;;;;;;;;;;2039678;29;20127;-88
2023/03/25 05:22:42;;;;;;;18.20;11.55;;;;;;;;;;2047688;29;20687;-88
2023/03/25 05:23:42;;;;;;;16.20;10.30;;;;;;;;;;2047851;29;20047;-88
2023/03/25 05:24:44;;;;;;;17.25;11.20;;;;;;;;;;2039376;29;20126;-88
2023/03/25 05:25:46;;;;;;;14.73;11.02;;;;;;;;;;2031467;29;20028;-87
2023/03/25 05:26:46;;;;;;;14.27;10.38;;;;;;;;;;2031186;29;20038;-90
2023/03/25 05:27:47;;;;;;;15.55;10.43;;;;;;;;;;2039088;29;20626;-90
2023/03/25 05:28:50;;;;;;;17.77;10.75;;;;;;;;;;2047895;29;20058;-90
2023/03/25 05:29:50;;;;;;;18.55;11.23;;;;;;;;;;2038956;29;20468;-91
2023/03/25 05:30:51;;;;;;;21.52;12.02;;;;;;;;;;2039868;29;20111;-89
2023/03/25 05:31:52;;;;;;;17.38;12.40;;;;;;;;;;2047958;29;20042;-89
2023/03/25 05:32:52;;;;;;;23.95;12.85;;;;;;;;;;2048108;29;20042;-89
2023/03/25 05:33:53;;;;;;;25.30;13.63;;;;;;;;;;2048637;29;20690;-90
2023/03/25 05:35:00;;;;;;;21.70;13.00;;;;;;;;;;2039196;29;20071;-89
2023/03/25 05:36:00;;;;;;;22.00;14.38;;;;;;;;;;2031823;29;20088;-88
2023/03/25 05:37:01;;;;;;;24.42;14.98;;;;;;;;;;2039179;29;20031;-88
2023/03/25 05:38:01;;;;;;;29.13;15.82;;;;;;;;;;2038808;29;20577;-88
2023/03/25 05:39:04;;;;;;;24.95;14.85;;;;;;;;;;2039265;29;20058;-88
2023/03/25 05:40:06;;;;;;;28.95;14.85;;;;;;;;;;2039182;29;20032;-88
2023/03/25 05:41:09;;;;;;;26.38;15.43;;;;;;;;;;2031374;29;20024;-88
2023/03/25 05:42:09;;;;;;;24.13;14.40;;;;;;;;;;2039107;29;20511;-89
2023/03/25 05:43:10;;;;;;;23.70;15.13;;;;;;;;;;2040064;29;20031;-87
2023/03/25 05:44:13;;;;;;;23.98;14.60;;;;;;;;;;2031162;29;20036;-88
2023/03/25 05:45:15;;;;;;;22.63;13.93;;;;;;;;;;2039336;29;20028;-88
2023/03/25 05:46:17;;;;;;;23.60;13.88;;;;;;;;;;2038968;29;20028;-88
2023/03/25 05:47:20;;;;;;;24.33;14.93;;;;;;;;;;2040120;29;20028;-88
2023/03/25 05:48:21;;;;;;;25.67;15.77;;;;;;;;;;2043526;29;20046;-88
2023/03/25 05:49:21;;;;;;;21.17;14.52;;;;;;;;;;2047008;29;20543;-87
2023/03/25 05:50:22;;;;;;;26.50;14.75;;;;;;;;;;2048408;29;20027;-88
2023/03/25 05:51:23;;;;;;;20.20;14.10;;;;;;;;;;2040818;29;20039;-87
2023/03/25 05:52:24;;;;;;;21.90;13.30;;;;;;;;;;2040081;29;20558;-89
2023/03/25 05:53:24;;;;;;;22.80;13.40;;;;;;;;;;2047873;29;20058;-89
2023/03/25 05:54:25;;;;;;;21.17;13.48;;;;;;;;;;2039374;29;20068;-88
2023/03/25 05:55:31;;;;;;;23.08;14.07;;;;;;;;;;2045309;29;20415;-91
2023/03/25 05:56:31;;;;;;;20.52;13.25;;;;;;;;;;2045835;29;20024;-87
2023/03/25 05:57:32;;;;;;;21.45;12.82;;;;;;;;;;2045553;29;20020;-87
2023/03/25 05:58:33;;;;;;;14.40;11.77;;;;;;;;;;2053933;29;20047;-88
2023/03/25 05:59:37;;;;;;;19.05;11.98;;;;;;;;;;2044812;29;20030;-88
2023/03/25 06:00:37;;;;;;;15.88;10.93;;;;;;;;;;2038054;29;20194;-88
2023/03/25 06:01:40;;;;;;;19.13;12.13;;;;;;;;;;2037102;29;20163;-88
2023/03/25 06:02:44;;;;;;;20.38;12.52;;;;;;;;;;2038421;29;20122;-87
2023/03/25 06:04:08;;;;;;;18.02;12.82;;;;;;;;;;2037728;29;20032;-87
2023/03/25 06:05:15;;;;;;;19.88;13.10;;;;;;;;;;2039114;29;20165;-87
2023/03/25 06:06:46;;;;;;;;;;;;;;;;;;;;;
2023/03/25 06:07:47;;;;;;;21.15;11.88;;;;;;;;;;1681556;29;10319595;-88
2023/03/25 06:08:59;;;;;;;;;;;;;;;;;;;;;
2023/03/25 06:10:00;;;;;;;18.20;11.20;;;;;;;;;;2049023;29;20020;-87
2023/03/25 06:11:00;;;;;;;19.88;12.63;;;;;;;;;;2054673;29;20094;-87
2023/03/25 06:12:02;;;;;;;15.73;11.30;;;;;;;;;;2047741;29;20038;-88
2023/03/25 06:13:05;;;;;;;17.85;11.40;;;;;;;;;;2047296;29;20121;-87
2023/03/25 06:14:06;;;;;;;22.83;12.32;;;;;;;;;;2047211;29;20082;-88
2023/03/25 06:15:08;;;;;;;16.90;11.73;;;;;;;;;;2038295;29;20173;-87
2023/03/25 06:16:08;;;;;;;19.60;12.40;;;;;;;;;;2038390;29;20388;-88
2023/03/25 06:17:09;;;;;;;21.17;13.10;;;;;;;;;;2046809;29;20046;-87
2023/03/25 06:18:10;;;;;;;19.65;12.52;;;;;;;;;;2046925;29;20023;-88
2023/03/25 06:19:10;;;;;;;17.45;12.15;;;;;;;;;;2047074;29;20019;-88
2023/03/25 06:20:12;;;;;;;18.55;12.50;;;;;;;;;;2038602;29;20043;-88
2023/03/25 06:21:13;;;;;;;19.77;12.00;;;;;;;;;;2038401;29;20265;-88
2023/03/25 06:22:13;;;;;;;17.52;11.75;;;;;;;;;;2038323;29;20082;-88
2023/03/25 06:23:13;;;;;;;;;;;;;;;;;;2037938;29;20059;-88
2023/03/25 06:24:14;;;;;;;17.90;12.13;;;;;;;;;;2046467;29;19954;-88
2023/03/25 06:25:17;;;;;;;18.73;12.15;;;;;;;;;;2046427;29;20035;-88
2023/03/25 06:26:21;;;;;;;20.33;12.27;;;;;;;;;;2046957;29;20019;-88
2023/03/25 06:27:22;;;;;;;18.88;11.50;;;;;;;;;;2047052;29;20410;-89
2023/03/25 06:28:23;;;;;;;19.77;11.82;;;;;;;;;;2038184;29;20489;-89
2023/03/25 06:29:29;;;;;;;16.63;11.90;;;;;;;;;;2038111;29;20031;-89
2023/03/25 06:30:35;;;;;;;18.23;12.23;;;;;;;;;;2030791;29;20467;-87